createdAt,value
2019-02-28T00:01:39.353Z,99.90
2019-02-28T00:04:25.720Z,99.90
2019-02-28T00:06:55.708Z,99.90
2019-02-28T00:09:25.680Z,99.90
2019-02-28T00:11:55.405Z,99.90
2019-02-28T00:14:24.040Z,99.90
2019-02-28T00:16:52.979Z,99.90
2019-02-28T00:26:46.530Z,99.90
2019-02-28T00:29:10.217Z,99.90
2019-02-28T00:31:39.639Z,99.90
2019-02-28T00:34:07.545Z,99.90
2019-02-28T00:36:40.921Z,99.90
2019-02-28T00:39:10.265Z,99.90
2019-02-28T00:41:42.985Z,99.90
2019-02-28T00:44:08.478Z,99.90
2019-02-28T00:46:37.288Z,99.90
2019-02-28T00:49:06.303Z,99.90
2019-02-28T00:51:33.938Z,99.90
2019-02-28T00:54:02.936Z,99.90
2019-02-28T00:56:31.898Z,99.90
2019-02-28T00:59:00.485Z,99.90
2019-02-28T01:01:33.864Z,99.90
2019-02-28T01:04:01.559Z,99.90
2019-02-28T01:06:30.252Z,99.90
2019-02-28T01:08:59.060Z,99.90
2019-02-28T01:11:26.902Z,99.90
2019-02-28T01:14:01.510Z,99.90
2019-02-28T01:16:29.340Z,99.90
2019-02-28T01:18:58.049Z,99.90
2019-02-28T01:21:26.890Z,99.90
2019-02-28T01:24:00.656Z,99.90
2019-02-28T01:26:30.493Z,99.90
2019-02-28T01:29:02.768Z,99.90
2019-02-28T01:31:30.448Z,99.90
2019-02-28T01:34:03.077Z,99.90
2019-02-28T01:36:31.812Z,99.90
2019-02-28T01:38:59.368Z,99.90
2019-02-28T01:41:28.935Z,99.90
2019-02-28T01:43:56.626Z,99.90
2019-02-28T01:49:29.760Z,99.90
2019-02-28T01:52:36.696Z,99.90
2019-02-28T01:55:25.020Z,99.90
2019-02-28T02:01:46.113Z,99.90
2019-02-28T02:33:54.477Z,99.90
2019-02-28T02:36:23.690Z,99.90
2019-02-28T02:38:51.276Z,99.90
2019-02-28T02:41:18.985Z,99.90
2019-02-28T02:43:46.618Z,99.90
2019-02-28T02:46:35.109Z,99.90
2019-02-28T02:49:04.133Z,99.90
2019-02-28T02:51:31.805Z,99.90
2019-02-28T02:53:59.508Z,99.90
2019-02-28T02:56:28.795Z,99.90
2019-02-28T02:59:01.091Z,99.90
2019-02-28T03:01:29.555Z,99.90
2019-02-28T03:03:58.287Z,99.90
2019-02-28T03:06:27.128Z,99.90
2019-02-28T03:08:54.903Z,99.90
2019-02-28T03:11:26.035Z,99.90
2019-02-28T03:13:53.770Z,99.90
2019-02-28T03:16:22.815Z,99.90
2019-02-28T03:18:56.477Z,99.90
2019-02-28T03:21:21.255Z,99.90
2019-02-28T03:23:50.542Z,99.90
2019-02-28T03:26:21.043Z,99.90
2019-02-28T03:28:50.123Z,99.90
2019-02-28T03:31:21.213Z,99.90
2019-02-28T03:33:50.196Z,99.90
2019-02-28T03:36:17.859Z,99.90
2019-02-28T03:38:49.630Z,99.90
2019-02-28T03:41:17.907Z,99.90
2019-02-28T03:43:49.029Z,99.90
2019-02-28T03:46:16.731Z,99.90
2019-02-28T03:48:44.355Z,99.90
2019-02-28T03:51:13.474Z,99.90
2019-02-28T03:53:55.676Z,99.90
2019-02-28T03:56:20.336Z,99.90
2019-02-28T03:58:48.328Z,99.90
2019-02-28T04:01:17.081Z,99.90
2019-02-28T04:03:45.990Z,99.90
2019-02-28T04:06:19.953Z,99.90
2019-02-28T04:08:51.031Z,99.90
2019-02-28T04:11:20.012Z,99.90
2019-02-28T04:13:52.400Z,99.90
2019-02-28T04:16:22.031Z,99.90
2019-02-28T04:18:53.456Z,99.90
2019-02-28T04:21:22.177Z,99.90
2019-02-28T04:23:51.397Z,99.90
2019-02-28T04:26:20.617Z,99.90
2019-02-28T04:28:53.277Z,99.90
2019-02-28T04:31:19.970Z,99.90
2019-02-28T04:33:48.588Z,99.90
2019-02-28T04:36:16.354Z,99.90
2019-02-28T04:38:44.915Z,99.90
2019-02-28T04:41:13.773Z,99.90
2019-02-28T04:43:44.359Z,99.90
2019-02-28T04:46:14.948Z,99.90
2019-02-28T04:48:45.625Z,99.90
2019-02-28T04:51:13.666Z,99.90
2019-02-28T04:53:45.514Z,99.90
2019-02-28T04:56:14.583Z,99.90
2019-02-28T04:58:43.064Z,99.90
2019-02-28T05:01:12.485Z,99.90
2019-02-28T05:03:41.991Z,99.90
2019-02-28T05:06:09.601Z,99.90
2019-02-28T05:08:38.888Z,99.90
2019-02-28T05:11:08.201Z,99.90
2019-02-28T05:13:37.099Z,99.90
2019-02-28T05:16:09.419Z,99.90
2019-02-28T05:18:38.409Z,99.90
2019-02-28T05:21:10.257Z,99.90
2019-02-28T05:23:51.557Z,99.90
2019-02-28T05:26:20.290Z,99.90
2019-02-28T05:28:48.029Z,99.90
2019-02-28T05:31:15.705Z,99.90
2019-02-28T05:33:44.467Z,99.90
2019-02-28T05:36:14.660Z,99.90
2019-02-28T05:38:43.884Z,99.90
2019-02-28T05:41:15.272Z,99.90
2019-02-28T05:43:42.476Z,99.90
2019-02-28T05:46:11.232Z,99.90
2019-02-28T05:48:39.444Z,99.90
2019-02-28T05:51:09.105Z,99.90
2019-02-28T05:53:41.370Z,99.90
2019-02-28T05:56:10.041Z,99.90
2019-02-28T06:03:06.110Z,99.90
2019-02-28T06:05:35.330Z,99.90
2019-02-28T06:08:03.571Z,99.90
2019-02-28T06:10:35.367Z,99.90
2019-02-28T06:13:06.688Z,99.90
2019-02-28T06:15:53.757Z,99.90
2019-02-28T06:18:55.844Z,99.90
2019-02-28T06:21:33.629Z,99.90
2019-02-28T06:24:02.965Z,99.90
2019-02-28T06:26:36.386Z,99.90
2019-02-28T06:29:29.261Z,99.90
2019-02-28T06:32:00.494Z,99.90
2019-02-28T06:34:31.077Z,99.90
2019-02-28T06:37:10.617Z,99.90
2019-02-28T06:39:39.823Z,99.90
2019-02-28T06:44:58.717Z,99.90
2019-02-28T06:47:47.991Z,99.90
2019-02-28T06:50:30.124Z,99.90
2019-02-28T06:53:17.604Z,99.90
2019-02-28T06:55:48.614Z,99.90
2019-02-28T06:58:19.286Z,99.90
2019-02-28T07:01:06.448Z,99.90
2019-02-28T07:03:39.022Z,99.90
2019-02-28T07:10:18.450Z,99.90
2019-02-28T07:13:11.831Z,99.90
2019-02-28T07:15:39.854Z,99.90
2019-02-28T07:18:08.154Z,99.90
2019-02-28T07:20:37.665Z,99.90
2019-02-28T07:23:22.263Z,99.90
2019-02-28T07:26:12.480Z,99.90
2019-02-28T07:28:42.173Z,99.90
2019-02-28T07:31:31.105Z,99.90
2019-02-28T07:37:47.179Z,99.90
2019-02-28T07:40:17.344Z,99.90
2019-02-28T07:50:10.800Z,99.60
2019-02-28T07:52:40.128Z,99.90
2019-02-28T07:55:09.206Z,99.90
2019-02-28T07:57:37.759Z,99.90
2019-02-28T08:00:18.271Z,99.30
2019-02-28T08:02:44.871Z,98.50
2019-02-28T08:05:33.798Z,97.80
2019-02-28T08:08:17.265Z,96.90
2019-02-28T08:10:49.343Z,96.50
2019-02-28T08:13:23.939Z,96.20
2019-02-28T08:16:08.503Z,95.80
2019-02-28T08:18:36.395Z,95.70
2019-02-28T08:21:05.419Z,94.90
2019-02-28T08:23:42.966Z,95.80
2019-02-28T08:26:10.682Z,95.60
2019-02-28T08:32:25.930Z,95.60
2019-02-28T08:34:55.520Z,94.60
2019-02-28T08:37:32.793Z,94.80
2019-02-28T08:40:08.815Z,94.60
2019-02-28T08:42:45.446Z,93.60
2019-02-28T08:46:13.889Z,94.60
2019-02-28T08:49:06.283Z,94.80
2019-02-28T08:51:40.755Z,96.20
2019-02-28T08:54:13.047Z,96.90
2019-02-28T08:56:54.135Z,96.50
2019-02-28T09:03:53.515Z,95.30
2019-02-28T09:06:22.027Z,96.10
2019-02-28T09:08:56.617Z,95.90
2019-02-28T09:11:28.511Z,95.30
2019-02-28T09:13:58.206Z,97.00
2019-02-28T09:16:25.779Z,98.30
2019-02-28T09:18:57.489Z,99.50
2019-02-28T09:21:27.740Z,99.90
2019-02-28T09:23:57.420Z,99.90
2019-02-28T09:26:31.257Z,99.90
2019-02-28T09:29:00.657Z,99.90
2019-02-28T09:31:39.071Z,99.90
2019-02-28T09:34:04.628Z,99.90
2019-02-28T09:36:32.409Z,99.90
2019-02-28T09:39:05.882Z,99.90
2019-02-28T09:41:51.761Z,99.90
2019-02-28T09:44:31.471Z,99.90
2019-02-28T09:47:11.680Z,99.90
2019-02-28T09:49:54.907Z,99.90
2019-02-28T09:52:27.739Z,99.90
2019-02-28T09:54:56.350Z,99.90
2019-02-28T09:57:25.588Z,99.90
2019-02-28T10:00:02.423Z,99.90
2019-02-28T10:02:31.909Z,99.90
2019-02-28T10:05:06.648Z,99.90
2019-02-28T10:07:35.590Z,99.90
2019-02-28T10:10:08.739Z,99.90
2019-02-28T10:12:44.014Z,99.90
2019-02-28T10:22:18.474Z,99.90
2019-02-28T10:24:48.181Z,99.90
2019-02-28T10:28:01.576Z,99.90
2019-02-28T10:34:41.104Z,99.90
2019-02-28T10:40:27.754Z,99.90
2019-02-28T10:42:56.809Z,99.90
2019-02-28T10:45:25.972Z,99.90
2019-02-28T10:47:55.210Z,99.90
2019-02-28T10:50:31.993Z,99.90
2019-02-28T10:53:04.576Z,99.90
2019-02-28T10:59:15.776Z,99.90
2019-02-28T11:02:05.370Z,99.90
2019-02-28T11:05:08.808Z,99.90
2019-02-28T11:08:02.483Z,99.90
2019-02-28T11:10:41.764Z,99.90
2019-02-28T11:16:58.848Z,99.90
2019-02-28T11:19:52.013Z,99.90
2019-02-28T11:22:20.050Z,99.90
2019-02-28T11:28:30.515Z,99.90
2019-02-28T11:31:00.456Z,99.90
2019-02-28T11:33:30.689Z,99.90
2019-02-28T11:39:59.454Z,99.90
2019-02-28T11:42:31.157Z,99.10
2019-02-28T11:45:06.173Z,98.00
2019-02-28T11:47:33.824Z,97.60
2019-02-28T11:50:04.638Z,97.20
2019-02-28T11:53:30.827Z,97.20
2019-02-28T11:57:03.035Z,97.70
2019-02-28T12:03:23.700Z,97.90
2019-02-28T12:05:27.652Z,97.70
2019-02-28T12:07:57.344Z,97.80
2019-02-28T12:14:22.102Z,98.10
2019-02-28T12:17:28.598Z,98.50
2019-02-28T12:23:54.240Z,98.60
2019-02-28T12:26:29.112Z,97.90
2019-02-28T12:29:41.724Z,98.10
2019-02-28T12:33:08.585Z,98.00
2019-02-28T12:35:40.523Z,97.80
2019-02-28T12:38:08.840Z,97.50
2019-02-28T12:40:56.089Z,97.10
2019-02-28T12:43:43.424Z,96.80
2019-02-28T12:47:13.376Z,96.70
2019-02-28T12:50:10.528Z,96.90
2019-02-28T12:59:23.583Z,96.90
2019-02-28T13:02:25.782Z,96.90
2019-02-28T13:05:26.447Z,97.30
2019-02-28T13:08:17.892Z,98.20
2019-02-28T13:10:49.279Z,98.60
2019-02-28T13:13:44.686Z,98.50
2019-02-28T13:19:24.546Z,98.20
2019-02-28T13:22:12.925Z,98.30
2019-02-28T13:25:03.619Z,98.20
2019-02-28T13:28:17.638Z,98.10
2019-02-28T13:31:12.156Z,97.90
2019-02-28T13:34:13.084Z,97.90
2019-02-28T13:36:40.953Z,97.90
2019-02-28T13:39:12.263Z,98.00
2019-02-28T13:42:04.329Z,98.10
2019-02-28T13:44:56.779Z,97.90
2019-02-28T13:47:25.881Z,97.50
2019-02-28T13:50:11.259Z,97.30
2019-02-28T13:53:17.598Z,97.30
2019-02-28T13:55:40.963Z,96.80
2019-02-28T13:58:53.827Z,96.40
2019-02-28T14:02:16.069Z,96.30
2019-02-28T14:04:45.388Z,96.30
2019-02-28T14:07:18.753Z,96.30
2019-02-28T14:10:21.491Z,96.10
2019-02-28T14:13:35.011Z,96.00
2019-02-28T14:16:26.521Z,96.00
2019-02-28T14:18:51.569Z,95.80
2019-02-28T14:21:53.349Z,95.80
2019-02-28T14:24:27.484Z,95.60
2019-02-28T14:27:06.544Z,95.10
2019-02-28T14:33:25.739Z,94.90
2019-02-28T14:35:53.768Z,94.70
2019-02-28T14:38:26.098Z,94.70
2019-02-28T14:41:06.501Z,94.70
2019-02-28T14:47:13.537Z,95.10
2019-02-28T14:49:48.490Z,95.50
2019-02-28T14:53:07.299Z,95.60
2019-02-28T14:55:42.822Z,95.60
2019-02-28T14:58:13.909Z,95.70
2019-02-28T15:00:42.230Z,95.90
2019-02-28T15:03:26.971Z,96.00
2019-02-28T15:06:57.501Z,96.20
2019-02-28T15:09:46.554Z,96.30
2019-02-28T15:16:08.292Z,96.80
2019-02-28T15:18:47.463Z,96.80
2019-02-28T15:21:42.043Z,97.00
2019-02-28T15:24:20.838Z,97.10
2019-02-28T15:27:06.468Z,97.30
2019-02-28T15:29:46.693Z,97.20
2019-02-28T15:32:17.242Z,97.50
2019-02-28T15:35:24.355Z,97.60
2019-02-28T15:38:38.104Z,97.80
2019-02-28T15:41:33.637Z,98.10
2019-02-28T15:43:57.982Z,98.30
2019-02-28T15:46:31.107Z,98.30
2019-02-28T15:48:58.869Z,98.40
2019-02-28T15:51:29.396Z,98.60
2019-02-28T15:54:03.361Z,98.70
2019-02-28T15:56:42.580Z,98.80
2019-02-28T16:00:05.413Z,98.90
2019-02-28T16:02:38.641Z,99.10
2019-02-28T16:05:25.771Z,99.20
2019-02-28T16:08:17.197Z,99.40
2019-02-28T16:14:44.972Z,99.50
2019-02-28T16:17:27.791Z,99.70
2019-02-28T16:20:13.150Z,99.70
2019-02-28T16:22:53.228Z,99.60
2019-02-28T16:25:29.191Z,99.80
2019-02-28T16:31:38.621Z,99.90
2019-02-28T16:34:08.344Z,99.90
2019-02-28T16:36:38.182Z,99.90
2019-02-28T16:39:07.259Z,99.90
2019-02-28T16:41:36.937Z,99.90
2019-02-28T16:44:08.267Z,99.90
2019-02-28T16:46:40.349Z,99.90
2019-02-28T16:49:19.495Z,99.90
2019-02-28T16:52:26.304Z,99.90
2019-02-28T16:55:32.930Z,99.90
2019-02-28T16:58:21.783Z,99.90
2019-02-28T17:01:04.465Z,99.90
2019-02-28T17:04:32.423Z,99.90
2019-02-28T17:08:15.550Z,99.90
2019-02-28T17:10:54.366Z,99.90
2019-02-28T17:13:40.353Z,99.90
2019-02-28T17:16:38.745Z,99.90
2019-02-28T17:19:58.698Z,99.90
2019-02-28T17:23:18.694Z,99.90
2019-02-28T17:29:46.294Z,99.90
2019-02-28T17:32:19.022Z,99.90
2019-02-28T17:34:48.016Z,99.90
2019-02-28T17:37:20.455Z,99.90
2019-02-28T17:39:54.070Z,99.90
2019-02-28T17:43:02.603Z,99.90
2019-02-28T17:50:05.826Z,99.90
2019-02-28T17:52:59.695Z,99.90
2019-02-28T17:56:44.433Z,99.90
2019-02-28T17:59:55.095Z,99.90
2019-02-28T18:21:59.005Z,99.90
2019-02-28T18:25:08.352Z,99.90
2019-02-28T18:28:32.237Z,99.90
2019-02-28T18:31:29.911Z,99.90
2019-02-28T18:34:33.623Z,99.90
2019-02-28T18:37:39.583Z,99.90
2019-02-28T18:40:14.406Z,99.90
2019-02-28T18:42:51.453Z,99.90
2019-02-28T18:45:37.611Z,99.90
2019-02-28T18:48:14.682Z,99.90
2019-02-28T18:50:47.354Z,99.90
2019-02-28T18:53:16.627Z,99.90
2019-02-28T18:55:45.653Z,99.90
2019-02-28T18:58:39.898Z,99.90
2019-02-28T19:01:21.111Z,99.90
2019-02-28T19:03:49.515Z,99.90
2019-02-28T19:06:20.769Z,99.90
2019-02-28T19:09:17.700Z,99.90
2019-02-28T19:11:52.665Z,99.90
2019-02-28T19:14:49.262Z,99.90
2019-02-28T19:22:10.329Z,99.90
2019-02-28T19:28:50.250Z,99.90
2019-02-28T19:31:24.882Z,99.90
2019-02-28T19:33:53.302Z,99.90
2019-02-28T19:36:30.779Z,99.90
2019-02-28T19:39:24.790Z,99.90
2019-02-28T19:46:01.254Z,99.90
2019-02-28T19:48:32.924Z,99.90
2019-02-28T19:51:05.151Z,99.90
2019-02-28T20:00:51.935Z,99.90
2019-02-28T20:04:25.809Z,99.90
2019-02-28T20:06:56.330Z,99.90
2019-02-28T20:09:29.242Z,99.90
2019-02-28T20:12:00.831Z,99.90
2019-02-28T20:14:28.859Z,99.90
2019-02-28T20:17:02.098Z,99.90
2019-02-28T20:19:30.253Z,99.90
2019-02-28T20:22:07.502Z,99.90
2019-02-28T20:24:39.396Z,99.90
2019-02-28T20:27:35.649Z,99.90
2019-02-28T20:30:16.467Z,99.90
2019-02-28T20:32:46.590Z,99.90
2019-02-28T20:35:26.753Z,99.90
2019-02-28T20:37:56.811Z,99.90
2019-02-28T20:40:31.232Z,99.90
2019-02-28T20:43:07.075Z,99.90
2019-02-28T20:45:35.290Z,99.90
2019-02-28T20:48:09.340Z,99.90
2019-02-28T20:50:43.500Z,99.90
2019-02-28T20:53:11.961Z,99.90
2019-02-28T20:55:49.062Z,99.90
2019-02-28T20:58:25.694Z,99.90
2019-02-28T21:01:13.092Z,99.90
2019-02-28T21:03:53.147Z,99.90
2019-02-28T21:06:41.489Z,99.90
2019-02-28T21:09:26.622Z,99.90
2019-02-28T21:11:55.090Z,99.90
2019-02-28T21:14:50.166Z,99.90
2019-02-28T21:20:42.339Z,99.90
2019-02-28T21:23:21.825Z,99.90
2019-02-28T21:25:54.799Z,99.90
2019-02-28T21:28:41.888Z,99.90
2019-02-28T21:31:29.323Z,99.90
2019-02-28T21:33:59.565Z,99.90
2019-02-28T21:36:27.708Z,99.90
2019-02-28T21:39:04.831Z,99.90
2019-02-28T21:41:37.202Z,99.90
2019-02-28T21:44:05.233Z,99.90
2019-02-28T21:46:40.097Z,99.90
2019-02-28T21:49:11.129Z,99.90
2019-02-28T21:51:55.190Z,99.90
2019-02-28T21:54:23.626Z,99.90
2019-02-28T21:56:56.592Z,99.90
2019-02-28T21:59:24.321Z,99.90
2019-02-28T22:01:52.377Z,99.90
2019-02-28T22:04:23.118Z,99.90
2019-02-28T22:06:56.138Z,99.90
2019-02-28T22:09:26.609Z,99.90
2019-02-28T22:12:01.641Z,99.90
2019-02-28T22:14:39.434Z,99.90
2019-02-28T22:17:10.438Z,99.90
2019-02-28T22:19:56.638Z,99.90
2019-02-28T22:22:28.686Z,99.90
2019-02-28T22:24:56.802Z,99.90
2019-02-28T22:27:29.316Z,99.90
2019-02-28T22:30:00.645Z,99.90
2019-02-28T22:32:46.631Z,99.90
2019-02-28T22:35:30.738Z,99.90
2019-02-28T22:38:01.894Z,99.90
2019-02-28T22:40:31.278Z,99.90
2019-02-28T22:43:01.078Z,99.90
2019-02-28T22:45:28.808Z,99.90
2019-02-28T22:47:56.721Z,99.90
2019-02-28T22:50:25.660Z,99.90
2019-02-28T22:52:56.407Z,99.90
2019-02-28T22:55:25.270Z,99.90
2019-02-28T22:57:53.208Z,99.90
2019-02-28T23:00:29.425Z,99.90
2019-02-28T23:02:57.368Z,99.90
2019-02-28T23:05:27.579Z,99.90
2019-02-28T23:07:58.862Z,99.90
2019-02-28T23:10:26.519Z,99.90
2019-02-28T23:12:55.571Z,99.90
2019-02-28T23:15:25.419Z,99.90
2019-02-28T23:17:56.416Z,99.90
2019-02-28T23:20:24.121Z,99.90
2019-02-28T23:22:51.791Z,99.90
2019-02-28T23:25:24.780Z,99.90
2019-02-28T23:28:08.536Z,99.90
2019-02-28T23:31:04.173Z,99.90
2019-02-28T23:33:34.250Z,99.90
2019-02-28T23:38:47.444Z,99.90
2019-02-28T23:50:24.941Z,99.90
2019-02-28T23:58:40.612Z,99.90
